Terminal Aerodrome Forecast
Issued by NWS

Home | Current Version | Previous Version | Text Only | Print | Product List | Glossary Off
Versions: 1 2 3 4 5 6 7 8 9 10 11 12 13 14 15

000
FTUS42 KMHX 270300 AAA
TAFISO
TAF AMD
KISO 270356Z 2704/2724 31007KT P6SM VCSH OVC015
     FM271000 33012G18KT 5SM -RASN SCT007 OVC015
     FM271500 34008KT P6SM OVC025
     FM272000 32007KT P6SM OVC050
      AMD LTD TO CLD VIS AND WIND=

USA.gov is the U.S. government's official web portal to all federal, state and local government web resources and services.